Time;durP1;ratioP1;P1;durP2;ratioP2;P2;SDS_P1;SDS_P2;PMS_P1;PMS_P2;Temp;Humidity;BMP_temperature;BMP_pressure;BME280_temperature;BME280_humidity;BME280_pressure;Samples;Min_cycle;Max_cycle;Signal;HPM_P1;HPM_P2
2021/06/22 00:00:32;;;;;;;4.35;1.60;;;;;;;;;;4232692;27;20388;-59
2021/06/22 00:02:34;;;;;;;2.40;1.50;;;;;;;;;;4226559;27;20184;-52
2021/06/22 00:04:36;;;;;;;3.58;1.80;;;;;;;;;;4226668;27;20194;-50
2021/06/22 00:06:39;;;;;;;9.90;2.50;;;;;;;;;;4230244;27;20163;-58
2021/06/22 00:08:41;;;;;;;4.20;1.73;;;;;;;;;;4234957;27;20436;-57
2021/06/22 00:10:43;;;;;;;3.58;2.35;;;;;;;;;;4235693;27;20117;-56
2021/06/22 00:12:45;;;;;;;4.88;1.77;;;;;;;;;;4235716;27;20430;-57
2021/06/22 00:14:47;;;;;;;1.90;1.42;;;;;;;;;;4230329;27;20376;-57
2021/06/22 00:16:49;;;;;;;3.00;1.73;;;18.60;62.50;;;;;;4235640;27;20035;-60
2021/06/22 00:18:51;;;;;;;1.83;1.30;;;;;;;;;;4245471;27;20027;-61
2021/06/22 00:20:53;;;;;;;3.20;1.65;;;;;;;;;;4236024;27;20080;-59
2021/06/22 00:22:55;;;;;;;2.20;1.70;;;;;;;;;;4231821;27;20473;-58
2021/06/22 00:24:57;;;;;;;4.03;1.52;;;;;;;;;;4225394;27;21041;-59
2021/06/22 00:26:59;;;;;;;1.85;1.50;;;;;;;;;;4235605;27;20028;-57
2021/06/22 00:29:01;;;;;;;3.40;1.67;;;;;;;;;;4232721;27;20639;-55
2021/06/22 00:31:03;;;;;;;3.90;1.77;;;;;;;;;;4240863;27;20640;-55
2021/06/22 00:33:05;;;;;;;2.20;1.50;;;;;;;;;;4224740;27;20034;-63
2021/06/22 00:35:08;;;;;;;3.08;1.52;;;;;;;;;;4229910;27;20042;-58
2021/06/22 00:37:11;;;;;;;2.72;1.40;;;;;;;;;;4227605;27;20619;-55
2021/06/22 00:39:14;;;;;;;2.83;1.55;;;19.80;58.90;;;;;;4228414;27;20027;-49
2021/06/22 00:41:16;;;;;;;2.10;1.42;;;20.70;58.80;;;;;;4226343;27;20415;-46
2021/06/22 00:43:18;;;;;;;2.15;1.55;;;21.10;58.00;;;;;;4224637;27;20363;-50
2021/06/22 00:45:28;;;;;;;2.10;1.13;;;;;;;;;;4223296;27;20405;-50
2021/06/22 00:47:31;;;;;;;1.85;1.35;;;21.70;57.20;;;;;;4228400;27;20350;-50
2021/06/22 00:49:34;;;;;;;1.85;1.30;;;22.60;54.50;;;;;;4229880;27;20590;-52
2021/06/22 00:51:37;;;;;;;1.65;1.33;;;23.20;53.30;;;;;;4232017;27;20034;-51
2021/06/22 00:53:39;;;;;;;1.55;1.33;;;23.90;52.10;;;;;;4236667;27;20079;-52
2021/06/22 00:55:41;;;;;;;2.47;1.10;;;24.60;50.80;;;;;;4233595;27;20098;-52
2021/06/22 00:57:43;;;;;;;1.52;1.20;;;25.10;49.70;;;;;;4235310;27;20031;-53
2021/06/22 00:59:46;;;;;;;2.03;1.30;;;25.60;48.60;;;;;;4228942;27;20098;-55
2021/06/22 01:01:50;;;;;;;1.38;1.25;;;25.70;48.40;;;;;;4205342;27;20063;-54
2021/06/22 01:03:53;;;;;;;1.75;1.40;;;25.70;48.20;;;;;;4223346;27;20039;-53
2021/06/22 01:05:55;;;;;;;1.23;1.13;;;25.80;48.00;;;;;;4224911;27;20465;-52
2021/06/22 01:07:58;;;;;;;1.30;1.20;;;25.90;47.80;;;;;;4206891;27;20496;-55
2021/06/22 01:10:01;;;;;;;1.70;1.38;;;26.00;47.60;;;;;;4226790;27;20082;-55
2021/06/22 01:12:05;;;;;;;4.22;1.77;;;26.10;47.70;;;;;;4222808;27;20126;-55
2021/06/22 01:14:07;;;;;;;2.50;1.30;;;26.20;47.60;;;;;;4224790;27;20751;-55
2021/06/22 01:16:30;;;;;;;1.58;1.13;;;26.30;47.40;;;;;;4230163;27;20168;-56
2021/06/22 01:18:32;;;;;;;1.45;1.05;;;26.50;47.10;;;;;;4226127;27;20087;-56
2021/06/22 01:20:36;;;;;;;11.80;1.40;;;26.60;47.20;;;;;;4228063;27;20358;-48
2021/06/22 01:22:38;;;;;;;1.00;0.90;;;;;;;;;;4230407;27;20047;-54
2021/06/22 01:24:40;;;;;;;5.47;1.73;;;;;;;;;;4221519;27;20023;-56
2021/06/22 01:26:46;;;;;;;2.42;1.10;;;;;;;;;;4225053;27;20027;-58
2021/06/22 01:28:49;;;;;;;1.15;1.05;;;;;;;;;;4225406;27;20599;-58
2021/06/22 01:30:51;;;;;;;1.60;1.10;;;;;;;;;;4225044;27;20488;-56
2021/06/22 01:32:53;;;;;;;1.30;0.88;;;;;;;;;;4205182;27;20031;-57
2021/06/22 01:34:57;;;;;;;1.90;1.00;;;;;;;;;;4232713;27;20618;-53
2021/06/22 01:37:00;;;;;;;2.97;1.27;;;26.70;46.60;;;;;;4219913;27;20022;-57
2021/06/22 01:39:04;;;;;;;2.38;1.00;;;26.50;48.80;;;;;;4221821;27;20034;-57
2021/06/22 01:41:06;;;;;;;2.70;0.98;;;;;;;;;;4225223;27;20763;-59
2021/06/22 01:43:08;;;;;;;2.70;1.10;;;;;;;;;;4225053;27;20032;-57
2021/06/22 01:45:11;;;;;;;1.77;1.30;;;;;;;;;;4224780;27;20454;-57
2021/06/22 01:47:13;;;;;;;0.97;0.90;;;;;;;;;;4227703;27;20119;-57
2021/06/22 01:49:15;;;;;;;1.48;0.98;;;;;;;;;;4228109;27;20527;-58
2021/06/22 01:51:17;;;;;;;1.67;1.20;;;;;;;;;;4210846;27;20020;-58
2021/06/22 01:53:19;;;;;;;1.00;0.90;;;;;;;;;;4230883;27;20032;-58
2021/06/22 01:55:41;;;;;;;3.38;1.13;;;;;;;;;;4228984;27;20461;-56
2021/06/22 01:57:43;;;;;;;4.47;0.98;;;;;;;;;;4228526;27;20204;-58
2021/06/22 01:59:45;;;;;;;5.07;1.25;;;;;;;;;;4227688;27;20536;-57
2021/06/22 02:01:47;;;;;;;3.60;1.23;;;;;;;;;;4232196;27;20334;-58
2021/06/22 02:03:49;;;;;;;1.83;1.27;;;26.20;49.80;;;;;;4231578;27;20023;-58
2021/06/22 02:05:51;;;;;;;2.80;1.15;;;25.40;50.00;;;;;;4238951;27;20463;-58
2021/06/22 02:07:54;;;;;;;1.20;0.90;;;25.20;50.30;;;;;;4209338;28;20144;-58
2021/06/22 02:09:56;;;;;;;5.70;1.43;;;25.00;50.50;;;;;;4235800;27;20270;-58
2021/06/22 02:11:58;;;;;;;2.38;1.10;;;24.90;50.60;;;;;;4232541;27;20532;-58
2021/06/22 02:14:03;;;;;;;1.13;0.98;;;24.70;50.30;;;;;;4232522;27;20395;-59
2021/06/22 02:16:05;;;;;;;2.10;1.30;;;24.80;50.30;;;;;;4229274;27;20035;-58
2021/06/22 02:18:08;;;;;;;2.73;1.70;;;25.10;50.00;;;;;;4236597;27;20046;-57
2021/06/22 02:20:11;;;;;;;;;;;25.40;49.70;;;;;;4222351;27;20026;-58
2021/06/22 02:22:13;;;;;;;3.45;1.65;;;25.50;49.60;;;;;;4227303;27;20137;-58
2021/06/22 02:24:15;;;;;;;2.53;1.48;;;25.50;49.90;;;;;;4228201;27;20317;-58
2021/06/22 02:26:17;;;;;;;3.30;1.58;;;25.30;50.10;;;;;;4215021;27;20055;-58
2021/06/22 02:28:22;;;;;;;7.03;2.10;;;25.10;50.40;;;;;;4225670;27;20131;-59
2021/06/22 02:30:24;;;;;;;3.45;1.98;;;25.00;50.50;;;;;;4224629;27;20030;-57
2021/06/22 02:32:28;;;;;;;8.60;2.47;;;24.80;51.50;;;;;;4227917;27;20031;-58
2021/06/22 02:34:30;;;;;;;5.88;2.30;;;24.70;52.30;;;;;;4211246;27;20110;-53
2021/06/22 02:36:32;;;;;;;5.68;2.10;;;24.60;52.50;;;;;;4210623;27;20122;-52
2021/06/22 02:38:34;;;;;;;2.90;2.10;;;24.50;52.70;;;;;;4210013;27;20466;-54
2021/06/22 02:40:36;;;;;;;4.57;2.83;;;24.40;53.00;;;;;;4223133;27;20027;-56
2021/06/22 02:42:39;;;;;;;4.90;3.03;;;24.30;52.40;;;;;;4227745;27;20188;-54
2021/06/22 02:44:41;;;;;;;;;;;24.20;52.60;;;;;;4226420;27;20143;-58
2021/06/22 02:46:43;;;;;;;4.40;2.80;;;24.40;52.30;;;;;;4227777;27;19976;-57
2021/06/22 02:48:46;;;;;;;6.30;3.83;;;24.70;51.80;;;;;;4226805;27;20023;-59
2021/06/22 02:50:48;;;;;;;6.07;4.03;;;24.80;51.50;;;;;;4230708;27;20019;-49
2021/06/22 02:52:50;;;;;;;7.35;4.00;;;24.70;50.80;;;;;;4229733;27;20023;-59
2021/06/22 02:54:53;;;;;;;8.02;3.38;;;24.50;51.10;;;;;;4238922;27;20488;-59
2021/06/22 02:56:55;;;;;;;;;;;24.40;51.10;;;;;;4227103;27;20190;-58
2021/06/22 02:58:57;;;;;;;5.78;3.95;;;24.20;50.70;;;;;;4240590;27;20270;-58
2021/06/22 03:00:59;;;;;;;7.03;3.70;;;24.00;50.20;;;;;;4230390;27;20260;-59
2021/06/22 03:03:02;;;;;;;7.55;3.58;;;23.90;51.00;;;;;;4237895;27;20265;-58
2021/06/22 03:05:05;;;;;;;6.60;4.07;;;23.70;51.20;;;;;;4229795;27;20024;-59
2021/06/22 03:07:08;;;;;;;5.55;3.50;;;23.60;51.50;;;;;;4231202;27;20138;-59
2021/06/22 03:09:10;;;;;;;5.22;3.67;;;23.50;51.70;;;;;;4229838;27;20087;-59
2021/06/22 03:11:12;;;;;;;5.13;3.05;;;23.30;51.90;;;;;;4229565;27;20669;-59
2021/06/22 03:13:15;;;;;;;7.05;3.40;;;23.20;52.10;;;;;;4227978;27;20110;-58
2021/06/22 03:15:18;;;;;;;6.13;3.40;;;23.00;52.20;;;;;;4229764;27;20015;-59
2021/06/22 03:17:20;;;;;;;4.28;3.13;;;22.90;52.40;;;;;;4228129;27;20095;-58
2021/06/22 03:19:23;;;;;;;4.82;2.83;;;22.80;52.50;;;;;;4223951;27;20302;-58
2021/06/22 03:21:25;;;;;;;7.38;3.28;;;22.70;52.80;;;;;;4234627;27;20108;-58
2021/06/22 03:23:27;;;;;;;3.65;2.78;;;22.60;52.90;;;;;;4243066;27;20039;-58
2021/06/22 03:25:29;;;;;;;4.82;2.92;;;22.60;53.10;;;;;;4228771;27;20028;-58
2021/06/22 03:27:31;;;;;;;4.95;2.53;;;22.50;53.20;;;;;;4236852;27;20035;-58
2021/06/22 03:29:33;;;;;;;3.90;2.63;;;22.50;54.10;;;;;;4239458;27;20466;-59
2021/06/22 03:31:36;;;;;;;5.45;2.90;;;22.40;53.60;;;;;;4232967;27;20388;-58
2021/06/22 03:33:38;;;;;;;3.25;2.72;;;22.30;53.80;;;;;;4236980;27;20344;-59
2021/06/22 03:35:40;;;;;;;5.13;2.42;;;22.30;53.90;;;;;;4231750;27;20035;-58
2021/06/22 03:37:42;;;;;;;4.78;2.65;;;22.20;54.10;;;;;;4230957;27;20031;-58
2021/06/22 03:39:47;;;;;;;6.40;2.60;;;22.10;54.30;;;;;;4232560;27;20016;-58
2021/06/22 03:41:49;;;;;;;4.30;2.13;;;22.10;54.50;;;;;;4230101;27;20038;-58
2021/06/22 03:43:56;;;;;;;5.82;2.40;;;22.00;54.60;;;;;;4233474;27;20030;-58
2021/06/22 03:45:59;;;;;;;4.30;2.53;;;22.00;54.80;;;;;;4234997;27;20023;-58
2021/06/22 03:48:01;;;;;;;3.17;1.83;;;21.90;54.90;;;;;;4233229;27;20336;-58
2021/06/22 03:50:08;;;;;;;3.97;2.20;;;21.80;55.00;;;;;;4241110;27;20023;-58
2021/06/22 03:52:10;;;;;;;3.75;2.30;;;21.80;55.20;;;;;;4208810;27;20346;-59
2021/06/22 03:54:12;;;;;;;3.78;2.22;;;21.70;55.40;;;;;;4235861;27;20094;-58
2021/06/22 03:56:15;;;;;;;3.42;2.10;;;21.70;55.50;;;;;;4232106;27;20514;-58
2021/06/22 03:58:17;;;;;;;3.72;2.13;;;21.60;55.60;;;;;;4225979;27;20039;-58
2021/06/22 04:00:20;;;;;;;3.35;2.38;;;21.60;55.80;;;;;;4240853;27;20053;-59
2021/06/22 04:02:22;;;;;;;3.67;2.05;;;21.50;55.80;;;;;;4211346;27;20048;-58
2021/06/22 04:04:24;;;;;;;4.90;2.38;;;21.40;55.90;;;;;;4218529;27;20039;-58
2021/06/22 04:06:26;;;;;;;5.53;2.40;;;21.40;56.10;;;;;;4213858;27;20483;-59
2021/06/22 04:08:28;;;;;;;3.25;1.80;;;21.30;56.20;;;;;;4220816;27;20092;-59
2021/06/22 04:10:31;;;;;;;4.82;2.03;;;21.30;56.40;;;;;;4213030;27;20040;-58
2021/06/22 04:12:33;;;;;;;3.75;2.13;;;21.20;57.10;;;;;;4213080;27;20085;-58
2021/06/22 04:14:35;;;;;;;3.55;2.05;;;21.20;56.70;;;;;;4217607;27;20027;-59
2021/06/22 04:16:37;;;;;;;3.55;1.95;;;21.10;56.70;;;;;;4217856;27;20069;-58
2021/06/22 04:18:39;;;;;;;3.45;1.98;;;21.00;56.90;;;;;;4213993;27;20031;-58
2021/06/22 04:20:41;;;;;;;2.85;1.80;;;21.00;57.00;;;;;;4220554;27;20023;-58
2021/06/22 04:22:44;;;;;;;2.65;1.98;;;21.00;57.20;;;;;;4214491;27;20031;-58
2021/06/22 04:24:46;;;;;;;3.70;2.38;;;20.90;57.20;;;;;;4213831;27;20868;-58
2021/06/22 04:26:48;;;;;;;3.20;1.90;;;20.90;57.40;;;;;;4221506;27;20114;-58
2021/06/22 04:28:51;;;;;;;2.85;1.70;;;20.80;57.50;;;;;;4211836;27;20076;-58
2021/06/22 04:30:53;;;;;;;2.90;1.80;;;20.80;57.70;;;;;;4217262;27;20023;-58
2021/06/22 04:32:55;;;;;;;3.67;1.80;;;20.70;57.70;;;;;;4211699;27;20024;-58
2021/06/22 04:34:57;;;;;;;3.72;1.90;;;20.70;57.90;;;;;;4217216;27;20027;-57
2021/06/22 04:36:59;;;;;;;3.72;1.90;;;20.70;57.90;;;;;;4210051;27;20058;-58
2021/06/22 04:39:01;;;;;;;3.63;1.55;;;20.70;57.90;;;;;;4208190;27;20024;-58
2021/06/22 04:41:04;;;;;;;3.58;1.98;;;20.70;58.00;;;;;;4211688;27;20030;-58
2021/06/22 04:43:07;;;;;;;3.00;1.33;;;20.70;58.00;;;;;;4216919;27;20581;-59
2021/06/22 04:45:09;;;;;;;4.97;2.40;;;20.60;57.90;;;;;;4217191;27;20088;-59
2021/06/22 04:47:12;;;;;;;2.67;1.50;;;20.60;57.90;;;;;;4205849;27;20384;-58
2021/06/22 04:49:14;;;;;;;4.47;1.90;;;20.60;58.00;;;;;;4211015;27;20127;-59
2021/06/22 04:51:16;;;;;;;2.20;1.40;;;20.60;58.10;;;;;;4205874;27;20103;-58
2021/06/22 04:53:19;;;;;;;2.35;1.75;;;20.50;58.20;;;;;;4204862;27;20344;-58
2021/06/22 04:55:25;;;;;;;2.42;1.50;;;20.50;58.40;;;;;;4214116;27;20345;-58
2021/06/22 04:57:28;;;;;;;2.35;1.33;;;20.50;58.60;;;;;;4211174;27;20074;-58
2021/06/22 04:59:34;;;;;;;2.55;1.55;;;20.40;58.70;;;;;;4211121;27;20077;-58
2021/06/22 05:01:36;;;;;;;4.72;2.08;;;20.40;58.80;;;;;;4213461;27;20889;-58
2021/06/22 05:03:38;;;;;;;3.30;1.67;;;20.40;58.90;;;;;;4226600;27;20390;-58
2021/06/22 05:05:40;;;;;;;2.72;1.80;;;20.40;59.10;;;;;;4226738;27;20020;-58
2021/06/22 05:07:43;;;;;;;5.30;2.00;;;20.40;59.20;;;;;;4220857;27;20019;-58
2021/06/22 05:09:45;;;;;;;2.15;1.45;;;20.30;59.30;;;;;;4227589;27;20088;-58
2021/06/22 05:11:47;;;;;;;3.22;1.50;;;20.30;59.50;;;;;;4228611;27;20151;-58
2021/06/22 05:13:51;;;;;;;3.67;1.50;;;20.20;59.60;;;;;;4230247;27;20107;-58
2021/06/22 05:15:53;;;;;;;2.55;1.65;;;20.20;59.70;;;;;;4229613;27;20019;-58
2021/06/22 05:17:55;;;;;;;3.67;2.20;;;20.20;59.80;;;;;;4232995;27;20461;-58
2021/06/22 05:19:57;;;;;;;5.07;1.70;;;20.10;59.80;;;;;;4235936;27;20101;-59
2021/06/22 05:21:59;;;;;;;3.25;2.10;;;20.10;60.00;;;;;;4229643;27;20031;-59
2021/06/22 05:24:02;;;;;;;2.45;1.77;;;20.10;60.00;;;;;;4232601;27;20014;-59
2021/06/22 05:26:04;;;;;;;4.88;2.25;;;20.10;60.20;;;;;;4229759;27;20412;-59
2021/06/22 05:28:06;;;;;;;6.60;2.30;;;20.00;60.30;;;;;;4229795;27;20022;-58
2021/06/22 05:30:10;;;;;;;4.78;2.38;;;20.00;60.40;;;;;;4223466;27;20080;-58
2021/06/22 05:32:12;;;;;;;5.63;2.60;;;20.00;60.50;;;;;;4228320;27;20126;-58
2021/06/22 05:34:14;;;;;;;3.60;2.70;;;20.00;60.60;;;;;;4233905;27;20050;-58
2021/06/22 05:36:16;;;;;;;4.40;2.65;;;19.90;60.70;;;;;;4225440;27;20027;-59
2021/06/22 05:38:19;;;;;;;2.83;2.47;;;19.90;60.70;;;;;;4219391;27;20238;-59
2021/06/22 05:40:22;;;;;;;7.05;2.85;;;19.90;60.70;;;;;;4224661;27;20393;-59
2021/06/22 05:42:24;;;;;;;3.17;2.88;;;19.90;60.80;;;;;;4227394;27;20054;-58
2021/06/22 05:44:26;;;;;;;6.40;3.03;;;19.90;60.90;;;;;;4224439;27;20028;-58
2021/06/22 05:46:28;;;;;;;6.63;3.80;;;19.80;60.90;;;;;;4226376;27;20107;-59
2021/06/22 05:48:30;;;;;;;3.80;3.25;;;19.80;61.00;;;;;;4227890;27;20499;-58
2021/06/22 05:50:33;;;;;;;4.75;3.00;;;19.80;61.00;;;;;;4222578;27;20051;-59
2021/06/22 05:52:35;;;;;;;5.35;3.60;;;19.80;61.10;;;;;;4224774;27;20083;-59
2021/06/22 05:54:39;;;;;;;5.05;3.63;;;19.70;61.10;;;;;;4227742;27;20146;-59
2021/06/22 05:56:41;;;;;;;4.47;3.22;;;19.70;61.20;;;;;;4223698;27;20084;-58
2021/06/22 05:58:44;;;;;;;4.63;3.10;;;19.70;61.30;;;;;;4227658;27;20015;-59
2021/06/22 06:00:46;;;;;;;4.95;3.33;;;19.70;61.40;;;;;;4220047;27;20031;-59
2021/06/22 06:02:50;;;;;;;4.20;3.22;;;19.70;61.40;;;;;;4221569;27;20161;-59
2021/06/22 06:04:53;;;;;;;4.75;3.42;;;19.70;61.50;;;;;;4223086;27;20208;-59
2021/06/22 06:06:58;;;;;;;3.95;3.13;;;19.60;61.90;;;;;;4223888;27;20416;-59
2021/06/22 06:09:00;;;;;;;3.65;3.35;;;19.60;61.60;;;;;;4220034;27;20035;-59
2021/06/22 06:11:04;;;;;;;4.00;3.25;;;19.60;61.70;;;;;;4228447;27;20520;-59
2021/06/22 06:13:05;;;;;;;;;;;19.60;61.70;;;;;;4224837;27;20079;-59
2021/06/22 06:15:09;;;;;;;3.83;3.33;;;19.50;61.70;;;;;;4214987;27;19916;-59
2021/06/22 06:17:11;;;;;;;3.28;2.97;;;19.50;61.80;;;;;;4216114;27;20130;-59
2021/06/22 06:19:15;;;;;;;5.15;3.25;;;19.50;61.90;;;;;;4220723;27;20039;-59
2021/06/22 06:21:17;;;;;;;4.00;3.55;;;19.50;62.00;;;;;;4220476;27;20410;-59
2021/06/22 06:23:20;;;;;;;5.10;3.60;;;19.40;62.00;;;;;;4201975;28;20032;-59
2021/06/22 06:25:22;;;;;;;;;;;19.40;62.10;;;;;;4220047;27;20121;-59
2021/06/22 06:27:37;;;;;;;5.00;3.20;;;19.40;62.20;;;;;;4218215;27;19911;-59
2021/06/22 06:29:48;;;;;;;3.40;3.10;;;19.40;62.20;;;;;;4216438;27;20343;-59
2021/06/22 06:31:51;;;;;;;3.53;2.65;;;19.40;62.60;;;;;;4225145;27;20567;-59
2021/06/22 06:33:53;;;;;;;6.17;3.03;;;19.40;62.50;;;;;;4207521;28;20096;-59
2021/06/22 06:35:55;;;;;;;6.38;2.92;;;19.50;62.10;;;;;;4220678;27;20279;-59
2021/06/22 06:37:57;;;;;;;4.15;2.70;;;19.50;62.00;;;;;;4220855;27;20358;-59
2021/06/22 06:40:00;;;;;;;3.78;2.33;;;19.50;62.00;;;;;;4220962;27;20023;-59
2021/06/22 06:42:02;;;;;;;6.78;2.70;;;19.50;62.10;;;;;;4222108;27;20039;-59
2021/06/22 06:44:04;;;;;;;5.63;2.73;;;19.40;62.10;;;;;;4228852;27;20384;-59
2021/06/22 06:46:07;;;;;;;5.85;2.50;;;19.40;62.20;;;;;;4232594;27;20438;-59
2021/06/22 06:48:09;;;;;;;3.83;2.38;;;19.40;62.20;;;;;;4223018;27;20024;-59
2021/06/22 06:50:12;;;;;;;7.00;2.28;;;19.40;62.20;;;;;;4235582;27;20095;-59
2021/06/22 06:52:14;;;;;;;4.32;2.60;;;19.30;62.30;;;;;;4219869;27;20451;-59
2021/06/22 06:54:16;;;;;;;6.40;2.50;;;19.30;62.40;;;;;;4220518;27;20085;-58
2021/06/22 06:56:18;;;;;;;4.22;2.20;;;19.30;62.50;;;;;;4227391;27;20023;-58
2021/06/22 06:58:20;;;;;;;4.45;2.10;;;19.30;62.50;;;;;;4223047;27;20027;-59
2021/06/22 07:00:24;;;;;;;3.20;1.90;;;19.30;63.00;;;;;;4212558;27;20021;-58
2021/06/22 07:02:25;;;;;;;;;;;19.40;63.40;;;;;;4230376;27;20050;-58
2021/06/22 07:04:28;;;;;;;3.47;2.10;;;19.60;63.00;;;;;;4231530;27;20235;-59
2021/06/22 07:06:30;;;;;;;5.63;2.13;;;19.60;62.40;;;;;;4221361;27;20027;-59
2021/06/22 07:08:38;;;;;;;4.20;2.30;;;19.60;62.00;;;;;;4231139;27;20088;-60
2021/06/22 07:10:41;;;;;;;4.35;1.90;;;19.60;61.90;;;;;;4228120;27;20507;-60
2021/06/22 07:12:44;;;;;;;5.70;2.30;;;19.60;62.10;;;;;;4239552;27;20110;-60
2021/06/22 07:14:46;;;;;;;2.53;1.83;;;19.60;62.10;;;;;;4224181;27;20579;-60
2021/06/22 07:16:49;;;;;;;3.90;2.00;;;19.50;62.20;;;;;;4224429;27;20037;-60
2021/06/22 07:18:51;;;;;;;3.00;2.07;;;19.50;62.30;;;;;;4224929;27;20134;-59
2021/06/22 07:20:53;;;;;;;3.90;2.08;;;19.40;62.30;;;;;;4204000;27;20290;-60
2021/06/22 07:22:56;;;;;;;4.13;1.80;;;19.40;62.40;;;;;;4226159;27;20103;-60
2021/06/22 07:24:58;;;;;;;;;;;19.40;62.50;;;;;;4228098;27;20016;-60
2021/06/22 07:27:00;;;;;;;3.05;2.25;;;19.40;62.50;;;;;;4229675;27;19915;-60
2021/06/22 07:29:03;;;;;;;4.93;2.35;;;19.30;62.70;;;;;;4235318;27;20517;-60
2021/06/22 07:31:09;;;;;;;4.15;2.40;;;19.30;62.80;;;;;;4235504;27;20113;-60
2021/06/22 07:33:11;;;;;;;3.58;2.47;;;19.30;63.20;;;;;;4235136;27;20024;-60
2021/06/22 07:35:13;;;;;;;3.83;2.10;;;19.30;64.40;;;;;;4236069;27;20306;-60
2021/06/22 07:37:15;;;;;;;4.57;2.30;;;19.40;64.90;;;;;;4231022;27;20540;-59
2021/06/22 07:39:17;;;;;;;3.50;2.47;;;19.60;64.20;;;;;;4233511;27;20153;-60
2021/06/22 07:41:20;;;;;;;4.25;2.20;;;19.70;63.60;;;;;;4232130;27;20222;-60
2021/06/22 07:43:22;;;;;;;3.20;2.08;;;19.70;62.90;;;;;;4231797;27;20061;-60
2021/06/22 07:45:24;;;;;;;4.25;2.30;;;19.70;63.50;;;;;;4230381;27;20027;-60
2021/06/22 07:47:26;;;;;;;4.90;2.60;;;19.60;62.90;;;;;;4230069;27;20042;-60
2021/06/22 07:49:28;;;;;;;3.15;2.22;;;19.60;63.20;;;;;;4231582;27;20059;-60
2021/06/22 07:51:30;;;;;;;4.32;2.13;;;19.50;63.30;;;;;;4224069;27;20029;-60
2021/06/22 07:53:33;;;;;;;3.53;2.65;;;19.50;63.50;;;;;;4227873;27;20023;-60
2021/06/22 07:55:35;;;;;;;3.70;2.40;;;19.40;63.70;;;;;;4229229;27;20426;-59
2021/06/22 07:57:37;;;;;;;3.88;2.33;;;;;;;;;;4228852;27;20107;-58
2021/06/22 07:59:39;;;;;;;3.72;2.30;;;19.40;64.20;;;;;;4229357;27;20422;-58
2021/06/22 08:01:41;;;;;;;4.55;2.50;;;19.40;63.90;;;;;;4229826;27;20035;-57
2021/06/22 08:03:44;;;;;;;6.88;2.40;;;19.30;64.30;;;;;;4210370;27;20036;-58
2021/06/22 08:05:48;;;;;;;4.47;3.00;;;19.30;64.40;;;;;;4232280;27;20023;-57
2021/06/22 08:07:51;;;;;;;5.65;3.70;;;19.30;64.50;;;;;;4228585;27;20019;-62
2021/06/22 08:09:54;;;;;;;8.02;3.30;;;19.30;65.10;;;;;;4230856;27;20011;-61
2021/06/22 08:11:56;;;;;;;4.80;2.70;;;19.30;65.10;;;;;;4224424;27;20031;-60
2021/06/22 08:13:58;;;;;;;5.68;2.88;;;19.30;64.80;;;;;;4228429;27;20112;-59
2021/06/22 08:16:02;;;;;;;6.20;2.95;;;19.30;65.00;;;;;;4221147;27;20027;-60
2021/06/22 08:18:05;;;;;;;3.72;2.95;;;19.40;65.20;;;;;;4227911;27;20031;-60
2021/06/22 08:20:08;;;;;;;5.18;2.70;;;19.40;65.30;;;;;;4225248;27;20399;-60
2021/06/22 08:22:10;;;;;;;4.57;2.88;;;19.40;65.30;;;;;;4225735;27;20405;-60
2021/06/22 08:24:12;;;;;;;3.38;2.20;;;19.40;65.50;;;;;;4228995;27;20088;-60
2021/06/22 08:26:14;;;;;;;4.65;2.60;;;19.40;65.40;;;;;;4225130;27;20031;-60
2021/06/22 08:28:17;;;;;;;6.85;2.95;;;19.40;65.30;;;;;;4231201;27;20113;-59
2021/06/22 08:30:21;;;;;;;4.88;2.53;;;19.40;65.30;;;;;;4224848;27;20070;-61
2021/06/22 08:32:23;;;;;;;4.18;2.78;;;19.40;65.30;;;;;;4225926;27;20038;-58
2021/06/22 08:34:28;;;;;;;4.53;2.80;;;19.40;65.50;;;;;;4226686;27;20492;-59
2021/06/22 08:36:30;;;;;;;4.35;2.70;;;19.40;65.50;;;;;;4227140;27;20072;-61
2021/06/22 08:38:32;;;;;;;4.78;2.75;;;19.40;65.50;;;;;;4226939;27;20182;-62
2021/06/22 08:40:34;;;;;;;3.08;2.13;;;19.40;65.50;;;;;;4228126;27;20400;-62
2021/06/22 08:42:38;;;;;;;3.63;2.42;;;19.30;66.20;;;;;;4221596;27;20039;-59
2021/06/22 08:44:41;;;;;;;3.08;2.58;;;19.40;65.60;;;;;;4226358;27;20111;-59
2021/06/22 08:46:44;;;;;;;2.65;2.25;;;19.30;65.50;;;;;;4222956;27;20024;-60
2021/06/22 08:48:46;;;;;;;;;;;19.40;65.40;;;;;;4229049;27;20080;-60
2021/06/22 08:50:48;;;;;;;3.50;2.50;;;19.40;65.20;;;;;;4220429;27;20050;-59
2021/06/22 08:52:51;;;;;;;3.58;2.40;;;19.30;65.40;;;;;;4223110;27;20425;-60
2021/06/22 08:54:54;;;;;;;5.60;2.42;;;19.30;65.60;;;;;;4221597;27;20483;-59
2021/06/22 08:56:58;;;;;;;4.07;2.42;;;19.30;65.50;;;;;;4226752;27;20065;-58
2021/06/22 08:59:00;;;;;;;3.05;2.50;;;19.30;65.40;;;;;;4224726;27;20433;-54
2021/06/22 09:01:02;;;;;;;5.35;2.47;;;19.30;65.50;;;;;;4227276;27;20023;-59
2021/06/22 09:03:13;;;;;;;4.40;2.60;;;19.20;65.20;;;;;;4224705;27;20055;-59
2021/06/22 09:05:15;;;;;;;3.83;2.65;;;19.20;65.30;;;;;;4227948;27;20081;-58
2021/06/22 09:07:58;;;;;;;3.95;2.55;;;19.20;65.50;;;;;;4211329;27;20027;-60
2021/06/22 09:10:00;;;;;;;3.92;2.55;;;19.20;65.40;;;;;;4218525;27;20031;-61
2021/06/22 09:12:08;;;;;;;4.47;2.80;;;19.20;65.60;;;;;;4229245;27;20079;-60
2021/06/22 09:14:10;;;;;;;4.22;2.28;;;19.20;65.50;;;;;;4227079;27;20512;-59
2021/06/22 09:16:16;;;;;;;3.63;2.40;;;19.20;65.60;;;;;;4224583;27;20133;-59
2021/06/22 09:18:30;;;;;;;8.80;2.38;;;19.20;65.70;;;;;;4228593;27;20713;-55
2021/06/22 09:20:35;;;;;;;4.47;2.28;;;19.20;65.60;;;;;;4222879;27;20023;-55
2021/06/22 09:22:37;;;;;;;4.55;2.30;;;19.20;65.80;;;;;;4225630;27;20023;-57
2021/06/22 09:24:40;;;;;;;5.10;2.10;;;19.30;65.90;;;;;;4205666;27;20027;-59
2021/06/22 09:26:48;;;;;;;15.38;2.70;;;19.40;65.60;;;;;;4229153;27;20497;-51
2021/06/22 09:28:52;;;;;;;15.65;2.50;;;19.60;65.70;;;;;;4226290;27;20032;-51
2021/06/22 09:31:03;;;;;;;16.58;2.45;;;19.70;65.40;;;;;;4231030;27;20166;-55
2021/06/22 09:33:24;;;;;;;7.57;2.58;;;19.90;65.20;;;;;;4229324;27;20637;-53
2021/06/22 09:35:26;;;;;;;10.57;2.53;;;20.00;64.80;;;;;;4228999;27;20035;-51
2021/06/22 09:37:49;;;;;;;16.90;2.92;;;20.20;64.40;;;;;;4237269;27;20484;-48
2021/06/22 09:39:51;;;;;;;9.73;2.35;;;20.20;64.20;;;;;;4232889;27;20103;-53
2021/06/22 09:41:55;;;;;;;7.13;2.33;;;20.20;64.20;;;;;;4230688;27;20286;-54
2021/06/22 09:44:09;;;;;;;4.22;2.45;;;20.10;64.10;;;;;;4232605;27;20024;-50
2021/06/22 09:46:13;;;;;;;5.18;2.25;;;20.10;64.20;;;;;;4233681;27;20227;-54
2021/06/22 09:48:15;;;;;;;5.10;2.20;;;20.00;64.20;;;;;;4228657;27;20026;-56
2021/06/22 09:50:40;;;;;;;5.68;2.22;;;19.90;64.40;;;;;;4227962;27;20088;-54
2021/06/22 09:52:42;;;;;;;3.15;2.13;;;19.90;64.50;;;;;;4224678;27;20115;-56
2021/06/22 09:54:49;;;;;;;4.82;2.00;;;19.80;64.50;;;;;;4225650;27;20019;-57
2021/06/22 09:56:52;;;;;;;7.05;1.98;;;19.80;64.60;;;;;;4226215;27;20073;-55
2021/06/22 09:58:55;;;;;;;4.57;2.20;;;19.70;64.70;;;;;;4223567;27;20031;-51
2021/06/22 10:00:57;;;;;;;4.47;1.90;;;19.70;64.80;;;;;;4222141;27;20394;-57
2021/06/22 10:03:00;;;;;;;5.93;2.17;;;19.70;64.80;;;;;;4221207;27;20046;-56
2021/06/22 10:05:02;;;;;;;2.95;2.13;;;19.70;64.80;;;;;;4225103;27;20027;-56
2021/06/22 10:07:10;;;;;;;4.82;2.20;;;19.60;64.70;;;;;;4222561;27;20395;-53
2021/06/22 10:09:15;;;;;;;3.38;2.10;;;19.60;64.80;;;;;;4230277;27;20011;-57
2021/06/22 10:11:41;;;;;;;4.43;2.22;;;19.60;64.80;;;;;;4228373;27;20062;-54
2021/06/22 10:13:43;;;;;;;7.20;2.30;;;19.60;64.80;;;;;;4232983;27;20449;-55
2021/06/22 10:15:45;;;;;;;5.32;2.83;;;19.60;65.00;;;;;;4226799;27;20376;-57
2021/06/22 10:17:47;;;;;;;10.18;2.72;;;19.60;64.90;;;;;;4232751;27;20020;-55
2021/06/22 10:19:51;;;;;;;6.30;2.53;;;19.50;65.10;;;;;;4209141;27;20023;-59
2021/06/22 10:21:56;;;;;;;10.07;2.80;;;19.50;65.20;;;;;;4227525;27;20019;-58
2021/06/22 10:23:59;;;;;;;12.40;2.63;;;19.50;65.10;;;;;;4228678;27;20039;-59
2021/06/22 10:26:01;;;;;;;14.13;2.60;;;19.50;65.30;;;;;;4219882;27;20031;-58
2021/06/22 10:28:05;;;;;;;10.95;2.55;;;19.50;65.30;;;;;;4223143;27;20035;-57
2021/06/22 10:30:10;;;;;;;9.18;2.58;;;19.50;65.30;;;;;;4202804;28;20439;-54
2021/06/22 10:32:13;;;;;;;5.75;2.72;;;19.50;65.30;;;;;;4225210;27;20031;-57
2021/06/22 10:34:15;;;;;;;;;;;19.40;65.30;;;;;;4226899;27;20126;-59
2021/06/22 10:36:29;;;;;;;5.85;2.50;;;19.40;65.20;;;;;;4229078;27;19911;-59
2021/06/22 10:38:40;;;;;;;;;;;19.40;65.50;;;;;;4222821;27;20027;-58
2021/06/22 10:40:43;;;;;;;4.22;2.22;;;19.40;65.30;;;;;;4221044;27;20009;-59
2021/06/22 10:42:56;;;;;;;4.10;2.50;;;19.40;65.50;;;;;;4224121;27;20123;-59
2021/06/22 10:45:05;;;;;;;5.88;2.55;;;19.40;65.60;;;;;;4226415;27;20156;-57
2021/06/22 10:47:22;;;;;;;6.15;2.42;;;19.40;65.70;;;;;;4233181;27;20030;-57
2021/06/22 10:49:24;;;;;;;5.63;3.00;;;19.30;65.70;;;;;;4232010;27;20023;-59
2021/06/22 10:51:36;;;;;;;5.10;2.55;;;19.30;65.80;;;;;;4233129;27;20561;-60
2021/06/22 10:53:44;;;;;;;3.95;1.95;;;19.30;66.00;;;;;;4229288;27;20034;-55